createdAt,value
2023-04-18T00:00:32.221Z,92.59
2023-04-18T00:03:15.903Z,92.68
2023-04-18T00:05:47.488Z,92.73
2023-04-18T00:08:15.286Z,92.72
2023-04-18T00:10:42.908Z,92.67
2023-04-18T00:13:10.610Z,92.87
2023-04-18T00:15:38.209Z,92.85
2023-04-18T00:18:06.216Z,92.87
2023-04-18T00:20:34.205Z,92.84
2023-04-18T00:23:01.778Z,92.88
2023-04-18T00:25:29.508Z,92.93
2023-04-18T00:27:57.981Z,93.04
2023-04-18T00:30:26.995Z,93.10
2023-04-18T00:32:54.732Z,93.16
2023-04-18T00:35:22.481Z,93.15
2023-04-18T00:37:50.147Z,93.23
2023-04-18T00:40:17.891Z,93.11
2023-04-18T00:42:45.484Z,93.07
2023-04-18T00:45:15.035Z,93.06
2023-04-18T00:47:42.920Z,93.01
2023-04-18T00:50:11.165Z,93.07
2023-04-18T00:52:38.924Z,93.09
2023-04-18T00:55:08.074Z,93.13
2023-04-18T00:57:36.430Z,93.24
2023-04-18T01:00:10.355Z,93.19
2023-04-18T01:02:39.889Z,93.16
2023-04-18T01:05:08.767Z,93.26
2023-04-18T01:07:40.709Z,93.30
2023-04-18T01:10:10.246Z,93.45
2023-04-18T01:12:38.188Z,93.47
2023-04-18T01:15:06.489Z,93.35
2023-04-18T01:17:35.826Z,93.31
2023-04-18T01:20:06.291Z,93.47
2023-04-18T01:22:34.184Z,93.54
2023-04-18T01:25:06.301Z,93.66
2023-04-18T01:27:33.912Z,93.68
2023-04-18T01:30:01.667Z,93.88
2023-04-18T01:32:30.771Z,94.00
2023-04-18T01:34:58.402Z,93.90
2023-04-18T01:37:27.501Z,93.94
2023-04-18T01:39:55.374Z,94.03
2023-04-18T01:42:23.108Z,94.10
2023-04-18T01:44:50.690Z,94.32
2023-04-18T01:47:18.475Z,94.31
2023-04-18T01:49:48.181Z,94.32
2023-04-18T01:52:17.283Z,94.48
2023-04-18T01:54:44.780Z,94.57
2023-04-18T01:57:13.396Z,94.55
2023-04-18T01:59:41.184Z,94.55
2023-04-18T02:02:08.935Z,94.76
2023-04-18T02:04:36.902Z,94.81
2023-04-18T02:07:04.963Z,94.89
2023-04-18T02:09:32.826Z,95.00
2023-04-18T02:12:02.441Z,95.06
2023-04-18T02:14:31.156Z,95.08
2023-04-18T02:17:01.406Z,95.10
2023-04-18T02:19:29.727Z,95.19
2023-04-18T02:21:57.415Z,95.22
2023-04-18T02:24:25.075Z,95.38
2023-04-18T02:26:52.763Z,95.21
2023-04-18T02:29:20.609Z,95.26
2023-04-18T02:31:48.268Z,95.20
2023-04-18T02:34:16.337Z,95.35
2023-04-18T02:36:44.175Z,95.25
2023-04-18T02:39:11.984Z,95.32
2023-04-18T02:41:39.706Z,95.62
2023-04-18T02:44:08.455Z,95.50
2023-04-18T02:46:38.539Z,95.56
2023-04-18T02:49:08.765Z,95.56
2023-04-18T02:51:36.478Z,95.74
2023-04-18T02:54:04.080Z,95.68
2023-04-18T02:56:40.244Z,95.74
2023-04-18T02:59:19.258Z,95.70
2023-04-18T03:02:10.337Z,95.68
2023-04-18T03:04:41.102Z,95.77
2023-04-18T03:07:10.317Z,95.63
2023-04-18T03:09:39.220Z,95.60
2023-04-18T03:12:15.409Z,95.63
2023-04-18T03:14:44.538Z,95.78
2023-04-18T03:17:13.151Z,95.89
2023-04-18T03:19:42.472Z,95.80
2023-04-18T03:22:12.648Z,95.79
2023-04-18T03:24:45.979Z,95.87
2023-04-18T03:27:14.580Z,95.93
2023-04-18T03:29:43.220Z,95.87
2023-04-18T03:32:11.346Z,95.94
2023-04-18T03:34:38.995Z,96.00
2023-04-18T03:37:08.423Z,96.09
2023-04-18T03:39:40.392Z,96.06
2023-04-18T03:42:08.664Z,96.10
2023-04-18T03:44:36.713Z,96.07
2023-04-18T03:47:04.599Z,96.06
2023-04-18T03:49:32.907Z,96.06
2023-04-18T03:52:00.698Z,96.16
2023-04-18T03:54:28.587Z,96.12
2023-04-18T03:56:57.591Z,96.36
2023-04-18T03:59:26.377Z,96.36
2023-04-18T04:01:54.271Z,96.61
2023-04-18T04:04:22.906Z,96.54
2023-04-18T04:06:51.314Z,96.52
2023-04-18T04:09:19.084Z,96.57
2023-04-18T04:11:46.969Z,96.72
2023-04-18T04:14:15.385Z,96.66
2023-04-18T04:16:45.906Z,96.67
2023-04-18T04:19:15.955Z,96.64
2023-04-18T04:21:53.183Z,96.63
2023-04-18T04:24:22.705Z,96.69
2023-04-18T04:26:51.355Z,96.73
2023-04-18T04:29:21.591Z,96.82
2023-04-18T04:31:49.697Z,96.86
2023-04-18T04:34:25.009Z,96.86
2023-04-18T04:36:54.024Z,96.83
2023-04-18T04:39:23.874Z,97.02
2023-04-18T04:42:07.584Z,97.10
2023-04-18T04:44:42.691Z,97.03
2023-04-18T04:47:10.769Z,96.92
2023-04-18T04:49:39.524Z,96.92
2023-04-18T04:52:07.143Z,96.89
2023-04-18T04:54:35.433Z,96.90
2023-04-18T04:57:05.340Z,96.94
2023-04-18T04:59:33.307Z,96.94
2023-04-18T05:02:02.050Z,96.89
2023-04-18T05:04:34.209Z,96.84
2023-04-18T05:07:02.189Z,96.84
2023-04-18T05:09:29.905Z,96.91
2023-04-18T05:11:57.538Z,96.71
2023-04-18T05:14:26.324Z,96.60
2023-04-18T05:16:55.243Z,96.68
2023-04-18T05:19:23.079Z,96.72
2023-04-18T05:21:50.931Z,96.72
2023-04-18T05:24:18.886Z,96.55
2023-04-18T05:26:46.603Z,96.34
2023-04-18T05:29:14.309Z,96.09
2023-04-18T05:31:42.616Z,95.81
2023-04-18T05:34:10.487Z,95.88
2023-04-18T05:36:38.128Z,95.74
2023-04-18T05:39:05.778Z,95.57
2023-04-18T05:41:33.406Z,95.66
2023-04-18T05:44:05.797Z,95.38
2023-04-18T05:46:33.886Z,95.02
2023-04-18T05:49:07.025Z,94.88
2023-04-18T05:51:41.962Z,94.71
2023-04-18T05:54:09.806Z,94.60
2023-04-18T05:56:37.768Z,94.76
2023-04-18T05:59:05.652Z,94.70
2023-04-18T06:01:44.466Z,94.62
2023-04-18T06:04:15.636Z,94.63
2023-04-18T06:06:48.188Z,94.30
2023-04-18T06:09:15.916Z,93.99
2023-04-18T06:11:43.500Z,93.72
2023-04-18T06:14:11.543Z,93.72
2023-04-18T06:16:39.616Z,93.76
2023-04-18T06:19:07.484Z,93.35
2023-04-18T06:21:35.160Z,93.75
2023-04-18T06:24:02.806Z,93.55
2023-04-18T06:26:31.882Z,93.37
2023-04-18T06:28:59.533Z,93.47
2023-04-18T06:31:27.210Z,93.16
2023-04-18T06:33:54.826Z,93.10
2023-04-18T06:36:22.679Z,92.95
2023-04-18T06:38:50.403Z,92.89
2023-04-18T06:41:18.276Z,92.97
2023-04-18T06:43:59.812Z,92.65
2023-04-18T06:46:30.463Z,92.52
2023-04-18T06:48:58.389Z,92.66
2023-04-18T06:51:26.740Z,92.22
2023-04-18T06:53:54.315Z,92.21
2023-04-18T06:56:22.415Z,91.98
2023-04-18T06:58:50.061Z,91.67
2023-04-18T07:01:22.279Z,91.72
2023-04-18T07:03:50.419Z,91.56
2023-04-18T07:06:19.890Z,91.68
2023-04-18T07:08:47.641Z,91.60
2023-04-18T07:11:18.267Z,91.68
2023-04-18T07:13:48.180Z,91.46
2023-04-18T07:16:15.927Z,91.25
2023-04-18T07:18:43.550Z,90.80
2023-04-18T07:21:11.239Z,91.02
2023-04-18T07:23:38.829Z,90.82
2023-04-18T07:26:06.558Z,90.54
2023-04-18T07:28:34.323Z,90.43
2023-04-18T07:31:03.550Z,90.34
2023-04-18T07:33:33.538Z,90.44
2023-04-18T07:36:01.605Z,90.05
2023-04-18T07:38:29.228Z,90.00
2023-04-18T07:41:00.997Z,89.74
2023-04-18T07:43:28.639Z,89.81
2023-04-18T07:45:56.378Z,89.15
2023-04-18T07:48:25.201Z,89.03
2023-04-18T07:50:53.257Z,89.12
2023-04-18T07:53:21.077Z,89.06
2023-04-18T07:55:49.923Z,89.08
2023-04-18T07:58:17.617Z,88.71
2023-04-18T08:00:45.251Z,88.31
2023-04-18T08:03:13.719Z,88.11
2023-04-18T08:05:42.791Z,87.57
2023-04-18T08:08:11.563Z,87.30
2023-04-18T08:10:39.334Z,87.59
2023-04-18T08:13:07.056Z,87.43
2023-04-18T08:15:34.709Z,87.04
2023-04-18T08:18:02.903Z,86.19
2023-04-18T08:20:30.727Z,86.49
2023-04-18T08:23:07.972Z,85.46
2023-04-18T08:25:37.492Z,85.46
2023-04-18T08:28:05.277Z,85.25
2023-04-18T08:30:32.898Z,85.01
2023-04-18T08:33:00.965Z,84.77
2023-04-18T08:35:28.690Z,84.10
2023-04-18T08:37:56.536Z,83.88
2023-04-18T08:40:25.464Z,84.89
2023-04-18T08:42:53.805Z,84.42
2023-04-18T08:45:21.525Z,83.42
2023-04-18T08:47:49.253Z,83.17
2023-04-18T08:50:17.132Z,83.11
2023-04-18T08:52:45.745Z,83.01
2023-04-18T08:55:13.442Z,82.78
2023-04-18T08:57:41.128Z,82.65
2023-04-18T09:00:11.289Z,82.55
2023-04-18T09:02:42.790Z,82.46
2023-04-18T09:05:16.238Z,81.76
2023-04-18T09:07:43.956Z,81.73
2023-04-18T09:10:12.475Z,81.60
2023-04-18T09:12:42.319Z,80.93
2023-04-18T09:15:12.227Z,80.77
2023-04-18T09:17:45.491Z,80.77
2023-04-18T09:20:15.523Z,80.20
2023-04-18T09:22:46.087Z,80.01
2023-04-18T09:25:29.650Z,79.31
2023-04-18T09:28:00.567Z,79.02
2023-04-18T09:30:32.706Z,78.72
2023-04-18T09:33:01.320Z,78.52
2023-04-18T09:35:29.073Z,78.02
2023-04-18T09:37:56.880Z,78.03
2023-04-18T09:40:24.883Z,77.53
2023-04-18T09:42:56.332Z,76.18
2023-04-18T09:45:24.758Z,76.14
2023-04-18T09:47:53.138Z,76.64
2023-04-18T09:50:20.908Z,76.79
2023-04-18T09:52:48.686Z,75.90
2023-04-18T09:55:18.289Z,75.30
2023-04-18T09:57:47.509Z,74.17
2023-04-18T10:00:20.249Z,74.18
2023-04-18T10:02:50.384Z,72.81
2023-04-18T10:05:20.947Z,73.32
2023-04-18T10:07:53.165Z,74.28
2023-04-18T10:10:24.854Z,73.16
2023-04-18T10:13:00.306Z,74.18
2023-04-18T10:15:28.786Z,73.40
2023-04-18T10:18:05.629Z,73.22
2023-04-18T10:20:35.253Z,72.65
2023-04-18T10:23:19.136Z,72.78
2023-04-18T10:25:47.323Z,72.66
2023-04-18T10:28:15.521Z,71.01
2023-04-18T10:30:44.292Z,69.57
2023-04-18T10:33:31.901Z,71.24
2023-04-18T10:36:01.438Z,69.04
2023-04-18T10:38:29.136Z,68.11
2023-04-18T10:41:12.720Z,67.91
2023-04-18T10:43:56.270Z,69.25
2023-04-18T10:46:31.719Z,69.45
2023-04-18T10:49:16.896Z,66.57
2023-04-18T10:51:46.498Z,67.90
2023-04-18T10:54:40.572Z,65.97
2023-04-18T10:57:10.205Z,66.26
2023-04-18T10:59:38.869Z,67.40
2023-04-18T11:02:12.752Z,64.46
2023-04-18T11:04:41.149Z,64.76
2023-04-18T11:07:08.838Z,66.01
2023-04-18T11:09:38.543Z,66.57
2023-04-18T11:12:10.478Z,66.75
2023-04-18T11:14:41.266Z,66.04
2023-04-18T11:17:40.015Z,64.94
2023-04-18T11:20:15.842Z,65.84
2023-04-18T11:22:47.814Z,65.41
2023-04-18T11:25:20.182Z,63.96
2023-04-18T11:27:51.487Z,64.90
2023-04-18T11:30:20.525Z,64.33
2023-04-18T11:32:48.536Z,65.06
2023-04-18T11:35:16.483Z,64.21
2023-04-18T11:37:49.970Z,61.73
2023-04-18T11:40:18.114Z,62.18
2023-04-18T11:42:45.983Z,61.92
2023-04-18T11:45:15.037Z,62.45
2023-04-18T11:47:43.498Z,62.72
2023-04-18T11:50:12.798Z,62.89
2023-04-18T11:52:41.363Z,63.26
2023-04-18T11:55:13.673Z,63.06
2023-04-18T11:57:41.862Z,62.86
2023-04-18T12:00:12.053Z,61.83
2023-04-18T12:02:39.748Z,61.24
2023-04-18T12:05:08.344Z,61.42
2023-04-18T12:07:40.387Z,61.89
2023-04-18T12:10:28.414Z,60.52
2023-04-18T12:13:00.003Z,60.95
2023-04-18T12:15:28.696Z,59.12
2023-04-18T12:18:00.868Z,59.31
2023-04-18T12:20:46.060Z,58.39
2023-04-18T12:23:30.687Z,59.47
2023-04-18T12:26:03.778Z,59.13
2023-04-18T12:28:31.942Z,59.88
2023-04-18T12:30:59.723Z,59.04
2023-04-18T12:33:27.749Z,59.93
2023-04-18T12:35:55.957Z,59.50
2023-04-18T12:38:23.837Z,59.20
2023-04-18T12:40:52.155Z,59.07
2023-04-18T12:43:19.796Z,58.89
2023-04-18T12:45:47.488Z,57.90
2023-04-18T12:48:19.353Z,58.39
2023-04-18T12:50:47.211Z,57.57
2023-04-18T12:53:14.813Z,57.62
2023-04-18T12:55:42.503Z,57.47
2023-04-18T12:58:10.201Z,57.26
2023-04-18T13:00:37.853Z,56.92
2023-04-18T13:03:05.764Z,56.44
2023-04-18T13:05:34.360Z,55.06
2023-04-18T13:08:15.148Z,54.69
2023-04-18T13:10:43.760Z,54.05
2023-04-18T13:13:11.563Z,53.04
2023-04-18T13:15:39.444Z,54.55
2023-04-18T13:18:12.115Z,54.21
2023-04-18T13:20:42.175Z,53.23
2023-04-18T13:23:09.800Z,53.18
2023-04-18T13:25:37.471Z,54.40
2023-04-18T13:28:05.552Z,54.78
2023-04-18T13:30:36.731Z,54.55
2023-04-18T13:33:04.446Z,54.73
2023-04-18T13:35:32.159Z,54.57
2023-04-18T13:37:59.898Z,54.35
2023-04-18T13:40:27.559Z,53.94
2023-04-18T13:42:55.206Z,53.93
2023-04-18T13:45:22.974Z,53.14
2023-04-18T13:47:50.888Z,52.95
2023-04-18T13:50:18.906Z,53.03
2023-04-18T13:52:48.626Z,52.46
2023-04-18T13:55:16.405Z,51.94
2023-04-18T13:57:44.088Z,49.69
2023-04-18T14:00:14.065Z,47.31
2023-04-18T14:02:42.091Z,47.28
2023-04-18T14:05:10.585Z,47.02
2023-04-18T14:07:38.512Z,48.65
2023-04-18T14:10:06.857Z,49.93
2023-04-18T14:12:34.596Z,49.27
2023-04-18T14:15:02.347Z,50.05
2023-04-18T14:17:30.991Z,49.96
2023-04-18T14:19:58.654Z,50.76
2023-04-18T14:22:26.934Z,51.24
2023-04-18T14:24:56.130Z,51.24
2023-04-18T14:27:25.947Z,51.18
2023-04-18T14:29:53.611Z,51.30
2023-04-18T14:32:21.244Z,51.60
2023-04-18T14:34:48.931Z,51.74
2023-04-18T14:37:17.743Z,51.62
2023-04-18T14:39:46.101Z,51.91
2023-04-18T14:42:13.735Z,51.75
2023-04-18T14:44:41.402Z,51.48
2023-04-18T14:47:09.450Z,50.36
2023-04-18T14:49:37.230Z,49.78
2023-04-18T14:52:05.026Z,49.49
2023-04-18T14:54:32.943Z,50.02
2023-04-18T14:57:01.366Z,49.35
2023-04-18T14:59:29.038Z,48.52
2023-04-18T15:01:56.783Z,48.24
2023-04-18T15:04:24.670Z,47.63
2023-04-18T15:06:52.484Z,47.88
2023-04-18T15:09:20.841Z,47.85
2023-04-18T15:11:48.492Z,49.08
2023-04-18T15:14:16.641Z,48.82
2023-04-18T15:16:44.624Z,48.91
2023-04-18T15:19:12.330Z,49.81
2023-04-18T15:21:40.035Z,49.94
2023-04-18T15:24:08.118Z,50.30
2023-04-18T15:26:36.208Z,50.98
2023-04-18T15:29:03.972Z,51.73
2023-04-18T15:31:32.385Z,51.52
2023-04-18T15:34:00.210Z,51.33
2023-04-18T15:36:28.690Z,51.13
2023-04-18T15:38:56.311Z,50.75
2023-04-18T15:41:23.984Z,50.42
2023-04-18T15:43:52.392Z,48.87
2023-04-18T15:46:20.270Z,48.23
2023-04-18T15:48:48.350Z,48.53
2023-04-18T15:51:16.050Z,49.18
2023-04-18T15:53:43.867Z,50.07
2023-04-18T15:56:11.897Z,50.74
2023-04-18T15:58:39.604Z,51.55
2023-04-18T16:01:07.699Z,52.31
2023-04-18T16:03:36.102Z,53.08
2023-04-18T16:06:04.575Z,52.96
2023-04-18T16:08:33.468Z,53.05
2023-04-18T16:11:01.249Z,53.57
2023-04-18T16:13:28.890Z,53.96
2023-04-18T16:15:56.623Z,53.94
2023-04-18T16:18:24.420Z,54.08
2023-04-18T16:20:52.068Z,54.30
2023-04-18T16:23:20.472Z,54.34
2023-04-18T16:25:48.475Z,55.04
2023-04-18T16:28:16.161Z,55.58
2023-04-18T16:30:45.615Z,55.87
2023-04-18T16:33:13.557Z,55.91
2023-04-18T16:35:41.622Z,55.76
2023-04-18T16:38:09.220Z,55.93
2023-04-18T16:40:37.889Z,55.75
2023-04-18T16:43:05.586Z,56.35
2023-04-18T16:45:33.299Z,57.32
2023-04-18T16:48:01.064Z,57.11
2023-04-18T16:50:28.832Z,58.08
2023-04-18T16:52:56.496Z,58.41
2023-04-18T16:55:24.203Z,59.04
2023-04-18T16:57:51.813Z,59.17
2023-04-18T17:00:19.484Z,59.62
2023-04-18T17:02:48.193Z,60.02
2023-04-18T17:05:16.016Z,60.37
2023-04-18T17:07:44.925Z,60.29
2023-04-18T17:10:12.625Z,61.19
2023-04-18T17:12:40.481Z,61.34
2023-04-18T17:15:08.176Z,61.51
2023-04-18T17:17:35.889Z,61.83
2023-04-18T17:20:06.994Z,61.86
2023-04-18T17:22:34.825Z,62.32
2023-04-18T17:25:03.010Z,62.88
2023-04-18T17:27:30.674Z,62.93
2023-04-18T17:29:58.263Z,62.95
2023-04-18T17:32:25.980Z,63.18
2023-04-18T17:34:54.020Z,63.93
2023-04-18T17:37:22.378Z,64.98
2023-04-18T17:39:50.572Z,64.19
2023-04-18T17:42:19.565Z,64.30
2023-04-18T17:44:47.297Z,65.02
2023-04-18T17:47:15.244Z,65.95
2023-04-18T17:49:42.928Z,66.00
2023-04-18T17:52:10.612Z,66.38
2023-04-18T17:54:38.628Z,67.28
2023-04-18T17:57:06.265Z,67.35
2023-04-18T17:59:37.518Z,67.53
2023-04-18T18:02:05.745Z,67.45
2023-04-18T18:04:33.862Z,68.27
2023-04-18T18:07:01.677Z,68.14
2023-04-18T18:09:29.419Z,68.71
2023-04-18T18:11:58.495Z,69.08
2023-04-18T18:14:26.777Z,70.06
2023-04-18T18:16:54.661Z,69.83
2023-04-18T18:19:22.335Z,72.05
2023-04-18T18:21:50.517Z,71.08
2023-04-18T18:24:18.675Z,71.89
2023-04-18T18:26:46.775Z,71.59
2023-04-18T18:29:14.780Z,72.38
2023-04-18T18:31:42.819Z,72.36
2023-04-18T18:34:10.845Z,72.58
2023-04-18T18:36:38.606Z,72.87
2023-04-18T18:39:06.829Z,73.17
2023-04-18T18:41:35.048Z,74.42
2023-04-18T18:44:02.956Z,73.45
2023-04-18T18:46:31.157Z,73.31
2023-04-18T18:48:59.003Z,73.79
2023-04-18T18:51:27.010Z,74.35
2023-04-18T18:53:56.651Z,74.15
2023-04-18T18:56:24.618Z,74.47
2023-04-18T18:58:54.448Z,74.34
2023-04-18T19:01:22.893Z,74.78
2023-04-18T19:03:50.934Z,76.10
2023-04-18T19:06:18.823Z,75.16
2023-04-18T19:08:46.507Z,75.24
2023-04-18T19:11:15.925Z,75.06
2023-04-18T19:13:43.546Z,74.79
2023-04-18T19:16:11.597Z,75.14
2023-04-18T19:18:40.547Z,76.28
2023-04-18T19:21:08.416Z,76.26
2023-04-18T19:23:36.207Z,76.23
2023-04-18T19:26:03.963Z,75.68
2023-04-18T19:28:31.732Z,76.12
2023-04-18T19:30:59.398Z,75.94
2023-04-18T19:33:27.877Z,75.87
2023-04-18T19:35:55.836Z,76.55
2023-04-18T19:38:23.516Z,76.27
2023-04-18T19:40:51.201Z,76.78
2023-04-18T19:43:18.838Z,76.53
2023-04-18T19:45:46.513Z,76.84
2023-04-18T19:48:14.201Z,77.26
2023-04-18T19:50:42.317Z,76.74
2023-04-18T19:53:10.999Z,76.68
2023-04-18T19:55:38.973Z,77.90
2023-04-18T19:58:06.880Z,78.33
2023-04-18T20:00:34.481Z,77.42
2023-04-18T20:03:02.255Z,78.17
2023-04-18T20:05:30.203Z,78.12
2023-04-18T20:07:58.018Z,78.05
2023-04-18T20:10:25.796Z,78.68
2023-04-18T20:12:53.447Z,78.71
2023-04-18T20:15:22.567Z,78.74
2023-04-18T20:17:50.464Z,79.53
2023-04-18T20:20:18.275Z,79.08
2023-04-18T20:22:47.468Z,79.41
2023-04-18T20:25:15.166Z,79.18
2023-04-18T20:27:42.868Z,79.21
2023-04-18T20:30:10.978Z,78.73
2023-04-18T20:32:38.706Z,78.19
2023-04-18T20:35:07.341Z,78.78
2023-04-18T20:37:36.424Z,77.91
2023-04-18T20:40:05.233Z,77.99
2023-04-18T20:42:32.978Z,77.93
2023-04-18T20:45:00.634Z,78.40
2023-04-18T20:47:28.353Z,78.02
2023-04-18T20:50:00.104Z,78.53
2023-04-18T20:52:28.068Z,77.56
2023-04-18T20:54:55.989Z,77.67
2023-04-18T20:57:23.602Z,77.14
2023-04-18T20:59:51.474Z,76.89
2023-04-18T21:02:19.154Z,77.21
2023-04-18T21:04:46.959Z,77.00
2023-04-18T21:07:14.613Z,76.75
2023-04-18T21:09:42.285Z,77.09
2023-04-18T21:12:09.965Z,77.69
2023-04-18T21:14:37.576Z,77.38
2023-04-18T21:17:05.438Z,77.32
2023-04-18T21:19:33.025Z,77.75
2023-04-18T21:22:00.785Z,77.58
2023-04-18T21:24:28.423Z,78.24
2023-04-18T21:26:56.010Z,78.09
2023-04-18T21:29:23.820Z,78.11
2023-04-18T21:31:51.782Z,78.02
2023-04-18T21:34:20.159Z,78.53
2023-04-18T21:36:47.812Z,78.57
2023-04-18T21:39:15.457Z,78.48
2023-04-18T21:41:44.500Z,79.90
2023-04-18T21:44:12.084Z,79.46
2023-04-18T21:46:39.784Z,79.10
2023-04-18T21:49:07.865Z,78.69
2023-04-18T21:51:35.514Z,79.89
2023-04-18T21:54:03.414Z,79.89
2023-04-18T21:56:31.161Z,80.05
2023-04-18T21:58:58.813Z,80.52
2023-04-18T22:01:26.533Z,80.88
2023-04-18T22:03:54.363Z,80.06
2023-04-18T22:06:23.193Z,80.32
2023-04-18T22:08:51.531Z,80.15
2023-04-18T22:11:19.306Z,80.55
2023-04-18T22:13:47.261Z,79.79
2023-04-18T22:16:15.239Z,80.06
2023-04-18T22:18:42.947Z,79.68
2023-04-18T22:21:10.582Z,80.25
2023-04-18T22:23:38.228Z,80.53
2023-04-18T22:26:05.902Z,80.86
2023-04-18T22:28:33.856Z,80.94
2023-04-18T22:31:01.559Z,81.20
2023-04-18T22:33:29.347Z,80.45
2023-04-18T22:35:57.069Z,80.42
2023-04-18T22:38:25.098Z,80.34
2023-04-18T22:40:52.891Z,79.92
2023-04-18T22:43:23.519Z,80.33
2023-04-18T22:45:51.510Z,80.18
2023-04-18T22:48:19.361Z,80.04
2023-04-18T22:50:47.264Z,80.41
2023-04-18T22:53:15.941Z,80.64
2023-04-18T22:55:44.208Z,80.08
2023-04-18T22:58:12.585Z,80.27
2023-04-18T23:00:40.446Z,80.85
2023-04-18T23:03:08.259Z,80.64
2023-04-18T23:05:36.187Z,80.95
2023-04-18T23:08:04.457Z,80.90
2023-04-18T23:10:32.268Z,80.56
2023-04-18T23:13:00.397Z,80.83
2023-04-18T23:15:28.090Z,81.51
2023-04-18T23:17:55.833Z,81.15
2023-04-18T23:20:24.033Z,81.30
2023-04-18T23:22:52.688Z,81.30
2023-04-18T23:25:20.705Z,81.31
2023-04-18T23:27:48.337Z,81.88
2023-04-18T23:30:16.188Z,82.37
2023-04-18T23:32:43.863Z,82.28
2023-04-18T23:35:11.583Z,81.85
2023-04-18T23:37:39.421Z,82.16
2023-04-18T23:40:07.971Z,81.98
2023-04-18T23:42:35.944Z,81.46
2023-04-18T23:45:04.420Z,81.99
2023-04-18T23:47:32.149Z,82.38
2023-04-18T23:49:59.954Z,82.11
2023-04-18T23:52:28.019Z,82.75
2023-04-18T23:54:58.786Z,81.79
2023-04-18T23:57:26.535Z,82.47
2023-04-18T23:59:54.217Z,82.12
